DLH1316 EDDF-DAAG
Flight info
| Callsign | DLH1316 |
|---|---|
| Flight time | 2h 13m |
| Altitude | 38000 |
| Route | ANEKI2L/18 ANEKI Y163 HERBI Y164 MOPAN DCT LUTIX DCT BENOT DCT NEMOS DCT GEVEA DCT INCUS DCT BALSI DCT RETNO DCT TUPOX DCT MTG DCT DIVKO DCT VATIR DCT PIVUS DCT BODEQ DCT VERSO DCT NELAS DCT CDP DCT RUFRU DCT GENIO DCT BUYAH UA27 ALR |
| Aircraft | A320/M-SDE2E3FGIJ1LORWXYZ/HB1 |
Departure
| Time | 2026-05-07 07:55 |
|---|---|
| Airport | Frankfurt Main Airport (EDDF) |
Arrival
| Time | 2026-05-07 10:09 |
|---|---|
| Airport | Houari Boumediene Airport (DAAG) |
| Time | Latitude | Longitude | Altitude | Speed | Heading |
|---|---|---|---|---|---|
| 2026-05-07 07:31 | 50.04067 | 8.55616 | 351 ft | 0 kts | 159° |
| 2026-05-07 07:50 | 50.04065 | 8.55617 | 351 ft | 2 kts | 159° |
| 2026-05-07 07:50 | 50.04036 | 8.55633 | 353 ft | 7 kts | 160° |
| 2026-05-07 07:50 | 50.03976 | 8.55631 | 352 ft | 12 kts | 226° |
| 2026-05-07 07:51 | 50.03939 | 8.55494 | 349 ft | 16 kts | 250° |
| 2026-05-07 07:51 | 50.03896 | 8.55313 | 351 ft | 20 kts | 249° |
| 2026-05-07 07:51 | 50.03847 | 8.55105 | 352 ft | 21 kts | 250° |
| 2026-05-07 07:51 | 50.03794 | 8.54889 | 352 ft | 21 kts | 250° |
| 2026-05-07 07:52 | 50.03742 | 8.54670 | 347 ft | 23 kts | 250° |
| 2026-05-07 07:52 | 50.03684 | 8.54429 | 348 ft | 25 kts | 250° |
| 2026-05-07 07:52 | 50.03635 | 8.54221 | 347 ft | 17 kts | 250° |
| 2026-05-07 07:52 | 50.03590 | 8.54035 | 349 ft | 19 kts | 250° |
| 2026-05-07 07:53 | 50.03541 | 8.53829 | 337 ft | 21 kts | 249° |
| 2026-05-07 07:53 | 50.03495 | 8.53633 | 337 ft | 18 kts | 249° |
| 2026-05-07 07:53 | 50.03449 | 8.53440 | 338 ft | 19 kts | 250° |
| 2026-05-07 07:53 | 50.03398 | 8.53234 | 333 ft | 21 kts | 249° |
| 2026-05-07 07:54 | 50.03346 | 8.53007 | 333 ft | 23 kts | 249° |
| 2026-05-07 07:54 | 50.03288 | 8.52770 | 331 ft | 20 kts | 250° |
| 2026-05-07 07:54 | 50.03265 | 8.52615 | 335 ft | 10 kts | 268° |
| 2026-05-07 07:54 | 50.03229 | 8.52595 | 335 ft | 6 kts | 179° |
| 2026-05-07 07:55 | 50.03053 | 8.52597 | 335 ft | 60 kts | 180° |
| 2026-05-07 07:55 | 50.02401 | 8.52604 | 335 ft | 125 kts | 179° |
| 2026-05-07 07:55 | 50.01357 | 8.52615 | 436 ft | 163 kts | 182° |
| 2026-05-07 07:55 | 50.00234 | 8.52643 | 1165 ft | 161 kts | 180° |
| 2026-05-07 07:56 | 49.99105 | 8.52712 | 1806 ft | 167 kts | 179° |
| 2026-05-07 07:56 | 49.97862 | 8.52793 | 2159 ft | 190 kts | 179° |
| 2026-05-07 07:56 | 49.96461 | 8.52887 | 2489 ft | 214 kts | 179° |
| 2026-05-07 07:56 | 49.94886 | 8.52992 | 2850 ft | 239 kts | 179° |
| 2026-05-07 07:57 | 49.93144 | 8.53106 | 3311 ft | 261 kts | 179° |
| 2026-05-07 07:57 | 49.91295 | 8.53233 | 4110 ft | 270 kts | 178° |
| 2026-05-07 07:57 | 49.89404 | 8.53368 | 5047 ft | 274 kts | 178° |
| 2026-05-07 07:57 | 49.87481 | 8.53505 | 5922 ft | 279 kts | 179° |
| 2026-05-07 07:58 | 49.85522 | 8.53645 | 6787 ft | 284 kts | 179° |
| 2026-05-07 07:58 | 49.83541 | 8.53785 | 7670 ft | 286 kts | 179° |
| 2026-05-07 07:58 | 49.81543 | 8.53920 | 8583 ft | 288 kts | 180° |
| 2026-05-07 07:58 | 49.79529 | 8.54052 | 9508 ft | 290 kts | 181° |
| 2026-05-07 07:59 | 49.77506 | 8.54063 | 10343 ft | 292 kts | 188° |
| 2026-05-07 07:59 | 49.75411 | 8.53787 | 10676 ft | 314 kts | 188° |
| 2026-05-07 07:59 | 49.73173 | 8.53481 | 11137 ft | 328 kts | 187° |
| 2026-05-07 07:59 | 49.70874 | 8.53172 | 11854 ft | 334 kts | 187° |
| 2026-05-07 08:00 | 49.68543 | 8.52865 | 12604 ft | 339 kts | 186° |
| 2026-05-07 08:00 | 49.66179 | 8.52555 | 13350 ft | 343 kts | 186° |
| 2026-05-07 08:00 | 49.63773 | 8.52240 | 13990 ft | 350 kts | 185° |
| 2026-05-07 08:00 | 49.61333 | 8.51920 | 14644 ft | 354 kts | 185° |
| 2026-05-07 08:01 | 49.58867 | 8.51594 | 15328 ft | 357 kts | 186° |
| 2026-05-07 08:01 | 49.56385 | 8.51267 | 16034 ft | 359 kts | 186° |
| 2026-05-07 08:01 | 49.53886 | 8.50936 | 16708 ft | 363 kts | 186° |
| 2026-05-07 08:01 | 49.51395 | 8.50606 | 17386 ft | 365 kts | 186° |
| 2026-05-07 08:02 | 49.48854 | 8.50273 | 18056 ft | 368 kts | 186° |
| 2026-05-07 08:02 | 49.46285 | 8.49942 | 18665 ft | 372 kts | 186° |
| 2026-05-07 08:02 | 49.43697 | 8.49611 | 19242 ft | 375 kts | 186° |
| 2026-05-07 08:02 | 49.41086 | 8.49274 | 19787 ft | 379 kts | 186° |
| 2026-05-07 08:03 | 49.38445 | 8.48927 | 20351 ft | 383 kts | 186° |
| 2026-05-07 08:03 | 49.35780 | 8.48580 | 20909 ft | 386 kts | 186° |
| 2026-05-07 08:03 | 49.33091 | 8.48228 | 21457 ft | 389 kts | 187° |
| 2026-05-07 08:03 | 49.30378 | 8.47869 | 22001 ft | 393 kts | 187° |
| 2026-05-07 08:04 | 49.27645 | 8.47509 | 22549 ft | 396 kts | 187° |
| 2026-05-07 08:04 | 49.24887 | 8.47148 | 23091 ft | 400 kts | 187° |
| 2026-05-07 08:04 | 49.22103 | 8.46784 | 23615 ft | 403 kts | 187° |
| 2026-05-07 08:04 | 49.19299 | 8.46418 | 24007 ft | 407 kts | 186° |
| 2026-05-07 08:05 | 49.16461 | 8.46050 | 24426 ft | 411 kts | 186° |
| 2026-05-07 08:05 | 49.13599 | 8.45684 | 24850 ft | 414 kts | 186° |
| 2026-05-07 08:05 | 49.11698 | 8.45440 | 25137 ft | 415 kts | 186° |
| 2026-05-07 08:05 | 49.08809 | 8.45065 | 25557 ft | 418 kts | 186° |
| 2026-05-07 08:06 | 49.05913 | 8.44564 | 25966 ft | 420 kts | 192° |
| 2026-05-07 08:06 | 49.03058 | 8.43594 | 26387 ft | 422 kts | 194° |
| 2026-05-07 08:06 | 49.00194 | 8.42588 | 26789 ft | 424 kts | 194° |
| 2026-05-07 08:06 | 48.97305 | 8.41580 | 27176 ft | 427 kts | 194° |
| 2026-05-07 08:07 | 48.94401 | 8.40571 | 27558 ft | 429 kts | 194° |
| 2026-05-07 08:07 | 48.91478 | 8.39558 | 27946 ft | 432 kts | 193° |
| 2026-05-07 08:07 | 48.88543 | 8.38545 | 28345 ft | 434 kts | 193° |
| 2026-05-07 08:07 | 48.85587 | 8.37527 | 28712 ft | 437 kts | 193° |
| 2026-05-07 08:08 | 48.82621 | 8.36511 | 29071 ft | 439 kts | 193° |
| 2026-05-07 08:08 | 48.79633 | 8.35481 | 29422 ft | 441 kts | 193° |
| 2026-05-07 08:08 | 48.76632 | 8.34430 | 29758 ft | 443 kts | 194° |
| 2026-05-07 08:08 | 48.73623 | 8.33342 | 30093 ft | 446 kts | 194° |
| 2026-05-07 08:09 | 48.70606 | 8.32226 | 30375 ft | 448 kts | 194° |
| 2026-05-07 08:09 | 48.67581 | 8.31098 | 30660 ft | 449 kts | 194° |
| 2026-05-07 08:09 | 48.64539 | 8.29969 | 30946 ft | 450 kts | 194° |
| 2026-05-07 08:09 | 48.61489 | 8.28852 | 31218 ft | 452 kts | 194° |
| 2026-05-07 08:10 | 48.58428 | 8.27737 | 31481 ft | 453 kts | 194° |
| 2026-05-07 08:10 | 48.55370 | 8.26630 | 31884 ft | 451 kts | 195° |
| 2026-05-07 08:10 | 48.52329 | 8.25537 | 32320 ft | 448 kts | 194° |
| 2026-05-07 08:10 | 48.49304 | 8.24450 | 32768 ft | 445 kts | 195° |
| 2026-05-07 08:11 | 48.46311 | 8.23364 | 33220 ft | 442 kts | 195° |
| 2026-05-07 08:11 | 48.43333 | 8.22274 | 33649 ft | 439 kts | 195° |
| 2026-05-07 08:11 | 48.40371 | 8.21185 | 34052 ft | 437 kts | 195° |
| 2026-05-07 08:11 | 48.37424 | 8.20104 | 34375 ft | 435 kts | 195° |
| 2026-05-07 08:12 | 48.34482 | 8.19029 | 34668 ft | 435 kts | 195° |
| 2026-05-07 08:12 | 48.31545 | 8.17962 | 34941 ft | 434 kts | 195° |
| 2026-05-07 08:12 | 48.28616 | 8.16898 | 35207 ft | 433 kts | 195° |
| 2026-05-07 08:12 | 48.25693 | 8.15795 | 35447 ft | 433 kts | 199° |
| 2026-05-07 08:13 | 48.22892 | 8.14167 | 35690 ft | 431 kts | 207° |
| 2026-05-07 08:13 | 48.20208 | 8.12176 | 35930 ft | 431 kts | 207° |
| 2026-05-07 08:13 | 48.17522 | 8.10182 | 36167 ft | 431 kts | 207° |
| 2026-05-07 08:13 | 48.14838 | 8.08195 | 36403 ft | 430 kts | 207° |
| 2026-05-07 08:14 | 48.12190 | 8.06241 | 36651 ft | 430 kts | 207° |
| 2026-05-07 08:14 | 48.09508 | 8.04264 | 36883 ft | 429 kts | 207° |
| 2026-05-07 08:14 | 48.06794 | 8.02266 | 37099 ft | 429 kts | 207° |
| 2026-05-07 08:14 | 48.04114 | 8.00295 | 37335 ft | 429 kts | 207° |
| 2026-05-07 08:15 | 48.01436 | 7.98325 | 37540 ft | 429 kts | 207° |
| 2026-05-07 08:15 | 47.98796 | 7.96387 | 37735 ft | 429 kts | 207° |
| 2026-05-07 08:15 | 47.96085 | 7.94398 | 37930 ft | 428 kts | 207° |
| 2026-05-07 08:16 | 47.90732 | 7.90484 | 38042 ft | 428 kts | 207° |
| 2026-05-07 08:16 | 47.85425 | 7.86607 | 38040 ft | 427 kts | 207° |
| 2026-05-07 08:17 | 47.80052 | 7.82687 | 38044 ft | 427 kts | 207° |
| 2026-05-07 08:17 | 47.74744 | 7.78831 | 38043 ft | 428 kts | 207° |
| 2026-05-07 08:18 | 47.69402 | 7.74954 | 38052 ft | 427 kts | 207° |
| 2026-05-07 08:18 | 47.64055 | 7.71081 | 38060 ft | 428 kts | 207° |
| 2026-05-07 08:19 | 47.58703 | 7.67220 | 38066 ft | 428 kts | 207° |
| 2026-05-07 08:19 | 47.53353 | 7.63364 | 38058 ft | 428 kts | 207° |
| 2026-05-07 08:20 | 47.47993 | 7.59517 | 38065 ft | 428 kts | 207° |
| 2026-05-07 08:20 | 47.42634 | 7.55686 | 38064 ft | 428 kts | 207° |
| 2026-05-07 08:21 | 47.37277 | 7.51852 | 38060 ft | 428 kts | 207° |
| 2026-05-07 08:21 | 47.31926 | 7.48020 | 38062 ft | 428 kts | 207° |
| 2026-05-07 08:22 | 47.26564 | 7.44200 | 38067 ft | 428 kts | 207° |
| 2026-05-07 08:22 | 47.21201 | 7.40393 | 38068 ft | 428 kts | 207° |
| 2026-05-07 08:23 | 47.16173 | 7.35818 | 38066 ft | 424 kts | 223° |
| 2026-05-07 08:23 | 47.12311 | 7.29315 | 38062 ft | 423 kts | 232° |
| 2026-05-07 08:24 | 47.08651 | 7.22558 | 38039 ft | 423 kts | 232° |
| 2026-05-07 08:24 | 47.04975 | 7.15814 | 38040 ft | 424 kts | 232° |
| 2026-05-07 08:25 | 47.01290 | 7.09073 | 38043 ft | 424 kts | 232° |
| 2026-05-07 08:25 | 46.97602 | 7.02348 | 38042 ft | 423 kts | 232° |
| 2026-05-07 08:26 | 46.92070 | 6.92288 | 38079 ft | 423 kts | 230° |
| 2026-05-07 08:26 | 46.87718 | 6.86495 | 38070 ft | 424 kts | 220° |
| 2026-05-07 08:27 | 46.83176 | 6.81087 | 38073 ft | 424 kts | 220° |
| 2026-05-07 08:27 | 46.78598 | 6.75647 | 38064 ft | 424 kts | 220° |
| 2026-05-07 08:28 | 46.74022 | 6.70209 | 38047 ft | 424 kts | 221° |
| 2026-05-07 08:28 | 46.69453 | 6.64795 | 38047 ft | 423 kts | 221° |
| 2026-05-07 08:29 | 46.64885 | 6.59400 | 38046 ft | 423 kts | 221° |
| 2026-05-07 08:29 | 46.60314 | 6.54008 | 38036 ft | 423 kts | 221° |
| 2026-05-07 08:30 | 46.55743 | 6.48628 | 38037 ft | 423 kts | 221° |
| 2026-05-07 08:30 | 46.51169 | 6.43258 | 38042 ft | 423 kts | 220° |
| 2026-05-07 08:31 | 46.46590 | 6.37894 | 38036 ft | 423 kts | 221° |
| 2026-05-07 08:31 | 46.42004 | 6.32534 | 38032 ft | 423 kts | 220° |
| 2026-05-07 08:32 | 46.37413 | 6.27188 | 38033 ft | 423 kts | 220° |
| 2026-05-07 08:32 | 46.32823 | 6.21855 | 38043 ft | 423 kts | 220° |
| 2026-05-07 08:33 | 46.28254 | 6.16575 | 38048 ft | 423 kts | 217° |
| 2026-05-07 08:33 | 46.22957 | 6.12839 | 38048 ft | 429 kts | 197° |
| 2026-05-07 08:34 | 46.17049 | 6.11366 | 38040 ft | 431 kts | 192° |
| 2026-05-07 08:34 | 46.11115 | 6.10051 | 38043 ft | 431 kts | 192° |
| 2026-05-07 08:35 | 46.05187 | 6.08732 | 38044 ft | 431 kts | 192° |
| 2026-05-07 08:35 | 45.99261 | 6.07419 | 38031 ft | 431 kts | 192° |
| 2026-05-07 08:36 | 45.93341 | 6.06107 | 38043 ft | 430 kts | 192° |
| 2026-05-07 08:36 | 45.87435 | 6.04810 | 38046 ft | 429 kts | 192° |
| 2026-05-07 08:37 | 45.81542 | 6.03512 | 38043 ft | 428 kts | 192° |
| 2026-05-07 08:37 | 45.75660 | 6.02217 | 38037 ft | 428 kts | 193° |
| 2026-05-07 08:38 | 45.69777 | 6.00920 | 38039 ft | 427 kts | 193° |
| 2026-05-07 08:38 | 45.63902 | 5.99619 | 38047 ft | 427 kts | 193° |
| 2026-05-07 08:39 | 45.58022 | 5.98323 | 38030 ft | 428 kts | 193° |
| 2026-05-07 08:39 | 45.52138 | 5.97029 | 38033 ft | 428 kts | 193° |
| 2026-05-07 08:40 | 45.46257 | 5.95715 | 38034 ft | 427 kts | 194° |
| 2026-05-07 08:40 | 45.40451 | 5.93990 | 38027 ft | 426 kts | 198° |
| 2026-05-07 08:41 | 45.34684 | 5.92049 | 38030 ft | 426 kts | 198° |
| 2026-05-07 08:41 | 45.28905 | 5.90158 | 38027 ft | 426 kts | 197° |
| 2026-05-07 08:42 | 45.23104 | 5.88355 | 38014 ft | 427 kts | 197° |
| 2026-05-07 08:42 | 45.17304 | 5.86575 | 38022 ft | 426 kts | 197° |
| 2026-05-07 08:43 | 45.11508 | 5.84794 | 38028 ft | 426 kts | 197° |
| 2026-05-07 08:43 | 45.05713 | 5.83008 | 38022 ft | 426 kts | 197° |
| 2026-05-07 08:44 | 44.99923 | 5.81225 | 37997 ft | 426 kts | 197° |
| 2026-05-07 08:44 | 44.94136 | 5.79441 | 38004 ft | 426 kts | 197° |
| 2026-05-07 08:45 | 44.88345 | 5.77664 | 38012 ft | 426 kts | 197° |
| 2026-05-07 08:45 | 44.82550 | 5.75894 | 37995 ft | 426 kts | 197° |
| 2026-05-07 08:46 | 44.76766 | 5.74124 | 38009 ft | 425 kts | 197° |
| 2026-05-07 08:46 | 44.71006 | 5.72361 | 38016 ft | 425 kts | 197° |
| 2026-05-07 08:47 | 44.65229 | 5.70599 | 38026 ft | 425 kts | 197° |
| 2026-05-07 08:47 | 44.59494 | 5.68855 | 38026 ft | 425 kts | 197° |
| 2026-05-07 08:48 | 44.53715 | 5.67099 | 38023 ft | 425 kts | 197° |
| 2026-05-07 08:48 | 44.47939 | 5.65351 | 38020 ft | 425 kts | 197° |
| 2026-05-07 08:49 | 44.42163 | 5.63611 | 38004 ft | 424 kts | 197° |
| 2026-05-07 08:49 | 44.36486 | 5.61534 | 38020 ft | 418 kts | 206° |
| 2026-05-07 08:50 | 44.31080 | 5.58559 | 38016 ft | 417 kts | 206° |
| 2026-05-07 08:50 | 44.25676 | 5.55591 | 38007 ft | 417 kts | 206° |
| 2026-05-07 08:51 | 44.20276 | 5.52639 | 38016 ft | 416 kts | 206° |
| 2026-05-07 08:51 | 44.14885 | 5.49699 | 38023 ft | 416 kts | 206° |
| 2026-05-07 08:52 | 44.09493 | 5.46769 | 38014 ft | 416 kts | 206° |
| 2026-05-07 08:52 | 44.05018 | 5.44343 | 38024 ft | 415 kts | 206° |
| 2026-05-07 08:53 | 43.99647 | 5.41435 | 38035 ft | 414 kts | 206° |
| 2026-05-07 08:53 | 43.94283 | 5.38528 | 38032 ft | 413 kts | 206° |
| 2026-05-07 08:54 | 43.88936 | 5.35625 | 38008 ft | 413 kts | 206° |
| 2026-05-07 08:54 | 43.83591 | 5.32738 | 38036 ft | 412 kts | 206° |
| 2026-05-07 08:55 | 43.78251 | 5.29857 | 38030 ft | 412 kts | 206° |
| 2026-05-07 08:55 | 43.72919 | 5.26990 | 38026 ft | 411 kts | 206° |
| 2026-05-07 08:56 | 43.67597 | 5.24135 | 38013 ft | 410 kts | 206° |
| 2026-05-07 08:56 | 43.62285 | 5.21293 | 38021 ft | 409 kts | 206° |
| 2026-05-07 08:57 | 43.56984 | 5.18457 | 38020 ft | 408 kts | 206° |
| 2026-05-07 08:57 | 43.51691 | 5.15630 | 38020 ft | 408 kts | 206° |
| 2026-05-07 08:58 | 43.46405 | 5.12815 | 38016 ft | 407 kts | 206° |
| 2026-05-07 08:58 | 43.41128 | 5.10010 | 38021 ft | 406 kts | 206° |
| 2026-05-07 08:59 | 43.36209 | 5.06410 | 38024 ft | 398 kts | 219° |
| 2026-05-07 08:59 | 43.31650 | 5.02090 | 38000 ft | 398 kts | 218° |
| 2026-05-07 09:00 | 43.27090 | 4.97795 | 38020 ft | 397 kts | 218° |
| 2026-05-07 09:00 | 43.22536 | 4.93522 | 38038 ft | 396 kts | 218° |
| 2026-05-07 09:01 | 43.17986 | 4.89268 | 38036 ft | 396 kts | 218° |
| 2026-05-07 09:01 | 43.13440 | 4.85011 | 38039 ft | 396 kts | 218° |
| 2026-05-07 09:02 | 43.08898 | 4.80758 | 38023 ft | 395 kts | 218° |
| 2026-05-07 09:02 | 43.04277 | 4.76667 | 38036 ft | 397 kts | 213° |
| 2026-05-07 09:03 | 42.99440 | 4.72998 | 38042 ft | 397 kts | 213° |
| 2026-05-07 09:03 | 42.94607 | 4.69344 | 38043 ft | 397 kts | 213° |
| 2026-05-07 09:04 | 42.89776 | 4.65685 | 38033 ft | 397 kts | 213° |
| 2026-05-07 09:04 | 42.84942 | 4.62028 | 38042 ft | 397 kts | 213° |
| 2026-05-07 09:05 | 42.80113 | 4.58387 | 38045 ft | 397 kts | 213° |
| 2026-05-07 09:05 | 42.75285 | 4.54755 | 38052 ft | 397 kts | 212° |
| 2026-05-07 09:06 | 42.70453 | 4.51125 | 38050 ft | 397 kts | 212° |
| 2026-05-07 09:06 | 42.65623 | 4.47499 | 38045 ft | 396 kts | 212° |
| 2026-05-07 09:07 | 42.60793 | 4.43886 | 38040 ft | 396 kts | 212° |
| 2026-05-07 09:07 | 42.55960 | 4.40280 | 38040 ft | 396 kts | 212° |
| 2026-05-07 09:08 | 42.51126 | 4.36676 | 38029 ft | 396 kts | 212° |
| 2026-05-07 09:08 | 42.46302 | 4.33081 | 38043 ft | 395 kts | 212° |
| 2026-05-07 09:09 | 42.41486 | 4.29500 | 38055 ft | 395 kts | 212° |
| 2026-05-07 09:09 | 42.36671 | 4.25927 | 38041 ft | 394 kts | 212° |
| 2026-05-07 09:10 | 42.31859 | 4.22360 | 38033 ft | 394 kts | 212° |
| 2026-05-07 09:10 | 42.27055 | 4.18805 | 38059 ft | 394 kts | 212° |
| 2026-05-07 09:11 | 42.22288 | 4.15282 | 38058 ft | 393 kts | 212° |
| 2026-05-07 09:11 | 42.17493 | 4.11755 | 38056 ft | 392 kts | 212° |
| 2026-05-07 09:12 | 42.12698 | 4.08233 | 38049 ft | 392 kts | 212° |
| 2026-05-07 09:12 | 42.07910 | 4.04713 | 38047 ft | 392 kts | 212° |
| 2026-05-07 09:13 | 42.03127 | 4.01204 | 38048 ft | 392 kts | 212° |
| 2026-05-07 09:13 | 41.98341 | 3.97706 | 38056 ft | 391 kts | 212° |
| 2026-05-07 09:14 | 41.93538 | 3.94261 | 38056 ft | 393 kts | 208° |
| 2026-05-07 09:14 | 41.88205 | 3.92378 | 38031 ft | 401 kts | 195° |
| 2026-05-07 09:15 | 41.82712 | 3.91118 | 38042 ft | 400 kts | 195° |
| 2026-05-07 09:15 | 41.77218 | 3.89856 | 38046 ft | 400 kts | 195° |
| 2026-05-07 09:16 | 41.71734 | 3.88587 | 38048 ft | 400 kts | 195° |
| 2026-05-07 09:16 | 41.66245 | 3.87330 | 38043 ft | 400 kts | 195° |
| 2026-05-07 09:17 | 41.60761 | 3.86080 | 38046 ft | 400 kts | 195° |
| 2026-05-07 09:17 | 41.55283 | 3.84822 | 38049 ft | 399 kts | 195° |
| 2026-05-07 09:18 | 41.49807 | 3.83561 | 38021 ft | 399 kts | 195° |
| 2026-05-07 09:18 | 41.44341 | 3.82308 | 38035 ft | 399 kts | 196° |
| 2026-05-07 09:19 | 41.38877 | 3.81054 | 38055 ft | 398 kts | 195° |
| 2026-05-07 09:19 | 41.33417 | 3.79813 | 38055 ft | 398 kts | 195° |
| 2026-05-07 09:20 | 41.27966 | 3.78567 | 38032 ft | 397 kts | 195° |
| 2026-05-07 09:20 | 41.22552 | 3.77338 | 38035 ft | 397 kts | 195° |
| 2026-05-07 09:21 | 41.17076 | 3.76096 | 38037 ft | 396 kts | 195° |
| 2026-05-07 09:21 | 41.11676 | 3.74878 | 38035 ft | 396 kts | 195° |
| 2026-05-07 09:22 | 41.06237 | 3.73648 | 38018 ft | 396 kts | 196° |
| 2026-05-07 09:22 | 41.00812 | 3.72422 | 38029 ft | 395 kts | 195° |
| 2026-05-07 09:23 | 40.95387 | 3.71204 | 38035 ft | 395 kts | 195° |
| 2026-05-07 09:23 | 40.89971 | 3.69985 | 38036 ft | 395 kts | 196° |
| 2026-05-07 09:24 | 40.84559 | 3.68763 | 38012 ft | 394 kts | 196° |
| 2026-05-07 09:24 | 40.79153 | 3.67558 | 38024 ft | 394 kts | 196° |
| 2026-05-07 09:25 | 40.73755 | 3.66353 | 38028 ft | 393 kts | 196° |
| 2026-05-07 09:25 | 40.68361 | 3.65145 | 38030 ft | 393 kts | 196° |
| 2026-05-07 09:26 | 40.62972 | 3.63934 | 38025 ft | 393 kts | 196° |
| 2026-05-07 09:26 | 40.57583 | 3.62731 | 38025 ft | 393 kts | 196° |
| 2026-05-07 09:27 | 40.52193 | 3.61528 | 38026 ft | 393 kts | 196° |
| 2026-05-07 09:28 | 40.44107 | 3.59730 | 38020 ft | 393 kts | 196° |
| 2026-05-07 09:28 | 40.38720 | 3.58537 | 38004 ft | 392 kts | 196° |
| 2026-05-07 09:29 | 40.33344 | 3.57351 | 38019 ft | 391 kts | 196° |
| 2026-05-07 09:29 | 40.27977 | 3.56172 | 38017 ft | 391 kts | 196° |
| 2026-05-07 09:30 | 40.22617 | 3.54991 | 38015 ft | 391 kts | 196° |
| 2026-05-07 09:30 | 40.17260 | 3.53812 | 37995 ft | 390 kts | 196° |
| 2026-05-07 09:31 | 40.11914 | 3.52633 | 38014 ft | 389 kts | 196° |
| 2026-05-07 09:31 | 40.06580 | 3.51456 | 38020 ft | 389 kts | 196° |
| 2026-05-07 09:32 | 40.01246 | 3.50294 | 38018 ft | 388 kts | 196° |
| 2026-05-07 09:32 | 39.95953 | 3.49142 | 37997 ft | 388 kts | 196° |
| 2026-05-07 09:33 | 39.90596 | 3.47971 | 38012 ft | 387 kts | 197° |
| 2026-05-07 09:33 | 39.85319 | 3.46818 | 38018 ft | 387 kts | 197° |
| 2026-05-07 09:34 | 39.80010 | 3.45660 | 38017 ft | 387 kts | 196° |
| 2026-05-07 09:34 | 39.74700 | 3.44505 | 37983 ft | 387 kts | 197° |
| 2026-05-07 09:35 | 39.69402 | 3.43356 | 37994 ft | 386 kts | 197° |
| 2026-05-07 09:35 | 39.64100 | 3.42244 | 38013 ft | 386 kts | 196° |
| 2026-05-07 09:36 | 39.58794 | 3.41149 | 38015 ft | 386 kts | 196° |
| 2026-05-07 09:36 | 39.53499 | 3.40056 | 38016 ft | 385 kts | 196° |
| 2026-05-07 09:37 | 39.48209 | 3.38964 | 38005 ft | 385 kts | 197° |
| 2026-05-07 09:37 | 39.42929 | 3.37877 | 38009 ft | 384 kts | 197° |
| 2026-05-07 09:38 | 39.38549 | 3.36970 | 38011 ft | 383 kts | 197° |
| 2026-05-07 09:38 | 39.33283 | 3.35879 | 38010 ft | 383 kts | 197° |
| 2026-05-07 09:39 | 39.28027 | 3.34800 | 37989 ft | 382 kts | 197° |
| 2026-05-07 09:39 | 39.22795 | 3.33733 | 38015 ft | 379 kts | 197° |
| 2026-05-07 09:40 | 39.17595 | 3.32667 | 38014 ft | 378 kts | 197° |
| 2026-05-07 09:40 | 39.12412 | 3.31605 | 38007 ft | 377 kts | 197° |
| 2026-05-07 09:41 | 39.07245 | 3.30548 | 37977 ft | 375 kts | 197° |
| 2026-05-07 09:41 | 39.02104 | 3.29496 | 37996 ft | 374 kts | 198° |
| 2026-05-07 09:42 | 38.96976 | 3.28446 | 37998 ft | 372 kts | 197° |
| 2026-05-07 09:42 | 38.91870 | 3.27413 | 37997 ft | 371 kts | 197° |
| 2026-05-07 09:43 | 38.86771 | 3.26379 | 37989 ft | 370 kts | 198° |
| 2026-05-07 09:43 | 38.81688 | 3.25337 | 37982 ft | 369 kts | 198° |
| 2026-05-07 09:44 | 38.76625 | 3.24307 | 37993 ft | 367 kts | 198° |
| 2026-05-07 09:44 | 38.71583 | 3.23289 | 37994 ft | 366 kts | 198° |
| 2026-05-07 09:45 | 38.66558 | 3.22279 | 37989 ft | 365 kts | 198° |
| 2026-05-07 09:45 | 38.61545 | 3.21266 | 37991 ft | 364 kts | 198° |
| 2026-05-07 09:46 | 38.56550 | 3.20249 | 37986 ft | 362 kts | 198° |
| 2026-05-07 09:46 | 38.51617 | 3.19254 | 37995 ft | 360 kts | 198° |
| 2026-05-07 09:47 | 38.46675 | 3.18257 | 37989 ft | 359 kts | 198° |
| 2026-05-07 09:47 | 38.41746 | 3.17262 | 37978 ft | 358 kts | 198° |
| 2026-05-07 09:48 | 38.36827 | 3.16283 | 37981 ft | 358 kts | 198° |
| 2026-05-07 09:48 | 38.31854 | 3.15276 | 37458 ft | 374 kts | 198° |
| 2026-05-07 09:48 | 38.29234 | 3.14802 | 37015 ft | 389 kts | 193° |
| 2026-05-07 09:49 | 38.26483 | 3.14776 | 36436 ft | 398 kts | 188° |
| 2026-05-07 09:49 | 38.23707 | 3.14834 | 35871 ft | 401 kts | 188° |
| 2026-05-07 09:49 | 38.20915 | 3.14907 | 35279 ft | 402 kts | 188° |
| 2026-05-07 09:49 | 38.18111 | 3.14984 | 34685 ft | 403 kts | 188° |
| 2026-05-07 09:50 | 38.15302 | 3.15055 | 34067 ft | 404 kts | 188° |
| 2026-05-07 09:50 | 38.12491 | 3.15125 | 33398 ft | 405 kts | 186° |
| 2026-05-07 09:50 | 38.09655 | 3.15657 | 32790 ft | 421 kts | 175° |
| 2026-05-07 09:50 | 38.06801 | 3.16572 | 32174 ft | 425 kts | 174° |
| 2026-05-07 09:51 | 38.03927 | 3.17501 | 31565 ft | 428 kts | 174° |
| 2026-05-07 09:51 | 38.01029 | 3.18439 | 30941 ft | 432 kts | 173° |
| 2026-05-07 09:51 | 37.98104 | 3.19387 | 30358 ft | 436 kts | 172° |
| 2026-05-07 09:51 | 37.95157 | 3.20341 | 29719 ft | 439 kts | 172° |
| 2026-05-07 09:52 | 37.92185 | 3.21305 | 29123 ft | 443 kts | 172° |
| 2026-05-07 09:52 | 37.89191 | 3.22277 | 28547 ft | 445 kts | 171° |
| 2026-05-07 09:52 | 37.86198 | 3.23248 | 27976 ft | 443 kts | 171° |
| 2026-05-07 09:52 | 37.83213 | 3.24212 | 27403 ft | 441 kts | 171° |
| 2026-05-07 09:53 | 37.80247 | 3.25163 | 26813 ft | 439 kts | 171° |
| 2026-05-07 09:53 | 37.77287 | 3.26108 | 26219 ft | 437 kts | 171° |
| 2026-05-07 09:53 | 37.74346 | 3.27049 | 25610 ft | 435 kts | 171° |
| 2026-05-07 09:53 | 37.71418 | 3.27987 | 24997 ft | 433 kts | 171° |
| 2026-05-07 09:54 | 37.68504 | 3.28923 | 24374 ft | 431 kts | 171° |
| 2026-05-07 09:54 | 37.65599 | 3.29858 | 23729 ft | 429 kts | 170° |
| 2026-05-07 09:54 | 37.62713 | 3.30786 | 23048 ft | 427 kts | 170° |
| 2026-05-07 09:54 | 37.59843 | 3.31706 | 22443 ft | 425 kts | 170° |
| 2026-05-07 09:55 | 37.56990 | 3.32619 | 21846 ft | 423 kts | 170° |
| 2026-05-07 09:55 | 37.54141 | 3.33527 | 21259 ft | 420 kts | 170° |
| 2026-05-07 09:55 | 37.51313 | 3.34425 | 20679 ft | 418 kts | 169° |
| 2026-05-07 09:55 | 37.48495 | 3.35317 | 20109 ft | 416 kts | 169° |
| 2026-05-07 09:56 | 37.45695 | 3.36206 | 19550 ft | 415 kts | 169° |
| 2026-05-07 09:56 | 37.42900 | 3.37098 | 18984 ft | 413 kts | 169° |
| 2026-05-07 09:56 | 37.40124 | 3.37982 | 18441 ft | 411 kts | 169° |
| 2026-05-07 09:56 | 37.37359 | 3.38860 | 17855 ft | 409 kts | 169° |
| 2026-05-07 09:57 | 37.34608 | 3.39736 | 17317 ft | 406 kts | 168° |
| 2026-05-07 09:57 | 37.31879 | 3.40604 | 16787 ft | 404 kts | 168° |
| 2026-05-07 09:57 | 37.29179 | 3.41460 | 16267 ft | 396 kts | 168° |
| 2026-05-07 09:57 | 37.26571 | 3.42287 | 15767 ft | 375 kts | 168° |
| 2026-05-07 09:58 | 37.24112 | 3.43067 | 15302 ft | 355 kts | 168° |
| 2026-05-07 09:58 | 37.21776 | 3.43807 | 14865 ft | 338 kts | 168° |
| 2026-05-07 09:58 | 37.19544 | 3.44509 | 14441 ft | 323 kts | 168° |
| 2026-05-07 09:58 | 37.17408 | 3.45183 | 14032 ft | 311 kts | 169° |
| 2026-05-07 09:59 | 37.15336 | 3.45839 | 13632 ft | 305 kts | 169° |
| 2026-05-07 09:59 | 37.13270 | 3.46489 | 13214 ft | 306 kts | 168° |
| 2026-05-07 09:59 | 37.11212 | 3.47136 | 12813 ft | 304 kts | 168° |
| 2026-05-07 09:59 | 37.09163 | 3.47780 | 12419 ft | 303 kts | 168° |
| 2026-05-07 10:00 | 37.07121 | 3.48421 | 12014 ft | 302 kts | 168° |
| 2026-05-07 10:00 | 37.05088 | 3.49059 | 11508 ft | 298 kts | 168° |
| 2026-05-07 10:00 | 37.03113 | 3.49679 | 11018 ft | 288 kts | 168° |
| 2026-05-07 10:00 | 37.01194 | 3.50282 | 10533 ft | 280 kts | 168° |
| 2026-05-07 10:01 | 36.99333 | 3.50869 | 10064 ft | 272 kts | 167° |
| 2026-05-07 10:01 | 36.97520 | 3.51450 | 9557 ft | 266 kts | 167° |
| 2026-05-07 10:01 | 36.95750 | 3.52013 | 9039 ft | 259 kts | 167° |
| 2026-05-07 10:01 | 36.94019 | 3.52557 | 8527 ft | 254 kts | 167° |
| 2026-05-07 10:02 | 36.92324 | 3.53080 | 8020 ft | 248 kts | 167° |
| 2026-05-07 10:02 | 36.90638 | 3.53331 | 7473 ft | 243 kts | 184° |
| 2026-05-07 10:02 | 36.88996 | 3.52889 | 6871 ft | 243 kts | 203° |
| 2026-05-07 10:02 | 36.87568 | 3.51780 | 6267 ft | 243 kts | 222° |
| 2026-05-07 10:03 | 36.86473 | 3.50167 | 5638 ft | 244 kts | 232° |
| 2026-05-07 10:03 | 36.85449 | 3.48466 | 4998 ft | 246 kts | 232° |
| 2026-05-07 10:03 | 36.84413 | 3.46751 | 4358 ft | 247 kts | 232° |
| 2026-05-07 10:03 | 36.83396 | 3.45070 | 3972 ft | 238 kts | 232° |
| 2026-05-07 10:04 | 36.82420 | 3.43459 | 3652 ft | 227 kts | 231° |
| 2026-05-07 10:04 | 36.81489 | 3.41924 | 3363 ft | 217 kts | 231° |
| 2026-05-07 10:04 | 36.80599 | 3.40456 | 3082 ft | 207 kts | 231° |
| 2026-05-07 10:04 | 36.79746 | 3.39050 | 2815 ft | 200 kts | 231° |
| 2026-05-07 10:05 | 36.78917 | 3.37685 | 2570 ft | 195 kts | 232° |
| 2026-05-07 10:05 | 36.78108 | 3.36353 | 2288 ft | 188 kts | 232° |
| 2026-05-07 10:05 | 36.77346 | 3.35098 | 2045 ft | 176 kts | 232° |
| 2026-05-07 10:05 | 36.76630 | 3.33918 | 1813 ft | 164 kts | 232° |
| 2026-05-07 10:06 | 36.75980 | 3.32849 | 1623 ft | 149 kts | 231° |
| 2026-05-07 10:06 | 36.75381 | 3.31865 | 1423 ft | 139 kts | 232° |
| 2026-05-07 10:06 | 36.74796 | 3.30903 | 1254 ft | 139 kts | 232° |
| 2026-05-07 10:06 | 36.74212 | 3.29943 | 1051 ft | 139 kts | 232° |
| 2026-05-07 10:07 | 36.73628 | 3.28984 | 869 ft | 139 kts | 233° |
| 2026-05-07 10:07 | 36.73044 | 3.28025 | 686 ft | 140 kts | 233° |
| 2026-05-07 10:07 | 36.72456 | 3.27050 | 498 ft | 141 kts | 234° |
| 2026-05-07 10:07 | 36.71862 | 3.26073 | 309 ft | 143 kts | 234° |
| 2026-05-07 10:08 | 36.71281 | 3.25122 | 118 ft | 142 kts | 234° |
| 2026-05-07 10:08 | 36.70731 | 3.24223 | 83 ft | 115 kts | 232° |
| 2026-05-07 10:08 | 36.70333 | 3.23573 | 71 ft | 84 kts | 232° |
| 2026-05-07 10:08 | 36.70012 | 3.23048 | 81 ft | 69 kts | 232° |
| 2026-05-07 10:09 | 36.69745 | 3.22608 | 77 ft | 57 kts | 233° |
| 2026-05-07 10:09 | 36.69544 | 3.22279 | 74 ft | 39 kts | 233° |
| 2026-05-07 10:09 | 36.69410 | 3.22060 | 80 ft | 29 kts | 232° |
| 2026-05-07 10:09 | 36.69380 | 3.21852 | 67 ft | 27 kts | 270° |
| 2026-05-07 10:10 | 36.69383 | 3.21617 | 70 ft | 26 kts | 271° |
| 2026-05-07 10:10 | 36.69383 | 3.21381 | 70 ft | 28 kts | 270° |
| 2026-05-07 10:10 | 36.69384 | 3.21128 | 70 ft | 30 kts | 270° |
| 2026-05-07 10:10 | 36.69385 | 3.20932 | 70 ft | 18 kts | 270° |
| 2026-05-07 10:11 | 36.69434 | 3.20835 | 67 ft | 12 kts | 293° |
| 2026-05-07 10:11 | 36.69437 | 3.20734 | 70 ft | 11 kts | 271° |
| 2026-05-07 10:11 | 36.69439 | 3.20642 | 70 ft | 10 kts | 271° |
| 2026-05-07 10:11 | 36.69441 | 3.20560 | 70 ft | 9 kts | 271° |
| 2026-05-07 10:12 | 36.69442 | 3.20486 | 70 ft | 8 kts | 271° |
| 2026-05-07 10:12 | 36.69444 | 3.20420 | 70 ft | 7 kts | 272° |
| 2026-05-07 10:12 | 36.69482 | 3.20365 | 64 ft | 13 kts | 352° |
| 2026-05-07 10:12 | 36.69572 | 3.20368 | 70 ft | 12 kts | 2° |
| 2026-05-07 10:13 | 36.69654 | 3.20371 | 70 ft | 11 kts | 2° |
| 2026-05-07 10:13 | 36.69728 | 3.20365 | 67 ft | 10 kts | 349° |
| 2026-05-07 10:13 | 36.69789 | 3.20350 | 70 ft | 6 kts | 347° |
| 2026-05-07 10:13 | 36.69797 | 3.20316 | 64 ft | 4 kts | 272° |
| 2026-05-07 10:14 | 36.69797 | 3.20289 | 63 ft | 2 kts | 271° |
| 2026-05-07 10:14 | 36.69797 | 3.20284 | 63 ft | 0 kts | 270° |